Pagrindinis puslapis
METAR-TAF:

METAR-TAF

Oro uostai :

Abu Dabis, Jungtiniai Arabų Emyratai

platuma: 24-26N, ilguma: 054-28E, Aukštis: 5 m

Dabartinis oras

Ataskaita buvo paskelbta 24 minutes, ne 04:00 UTC
Vėjas 3 kt iš Pietryčių
Temperatūra 33°C
Drėgmė 63%
Slėgis 999 hPa
Matomumas 10 km arba daugiau
nėra debesų žemiau 1500 m ir nėra kamuolinių lietaus debesų

METAR: OMAD 160400Z 14003KT CAVOK 33/25 Q0999 NOSIG

Laikas: 08:24 (04:24 UTC)

Prognozė

Ataskaita buvo paskelbta 5 valandos ir 24 minutes, ne 23:00 UTC
Prognozė galioja nuo 16 metu 00 UTC su 17 metu 06 UTC
Vėjas 6 kt iš Rytų/Pietryčių
Matomumas: 8000 m
Tikimybė 30%
nuo 16 metu 02 UTC su 16 metu 07 UTC
Matomumas: 4000 m
dulkės
Tapsmas
nuo 16 metu 07 UTC su 16 metu 09 UTC
Vėjas 13 kt iš Šiaurės Vakarų
Tapsmas
nuo 16 metu 15 UTC su 16 metu 17 UTC
Vėjas 2 kt nuo kintamojo kryptimis

TAF: OMAD 152300Z 1600/1706 11006KT 8000 NSC PROB30 1602/1607 4000 DU BECMG 1607/1609 32013KT BECMG 1615/1617 VRB02KT

Orai ataskaitas ir orų prognozės (METAR, TAF).

turimą stotys yra geltonos ir raudonos taškus žemėlapyje.

Perkelti pele per norėdami pamatyti stoties vardą.

Tada spustelėkite, norėdami matyti oro stebėjimo ir prognozės.

Norėdami pakeisti žemėlapį: spustelėkite ant žalios mygtukų su juodo kryžiaus žemyn,; žalią mygtuką su brūkšneliu, jei norite nutolinti; arba žalių rodyklių gretimoms žemėlapius.


METAR-TAF: